createdAt,value
2023-02-22T00:02:25.760Z,12.20
2023-02-22T00:04:54.609Z,13.98
2023-02-22T00:07:24.000Z,15.07
2023-02-22T00:09:54.370Z,12.45
2023-02-22T00:12:22.410Z,13.82
2023-02-22T00:14:52.747Z,12.40
2023-02-22T00:17:20.885Z,13.48
2023-02-22T00:19:52.875Z,12.20
2023-02-22T00:22:20.705Z,13.35
2023-02-22T00:24:48.504Z,12.85
2023-02-22T00:27:15.305Z,13.55
2023-02-22T00:29:46.507Z,13.20
2023-02-22T00:32:15.470Z,15.43
2023-02-22T00:34:43.799Z,13.20
2023-02-22T00:37:11.400Z,12.10
2023-02-22T00:39:38.334Z,12.57
2023-02-22T00:42:05.271Z,13.27
2023-02-22T00:44:41.234Z,11.65
2023-02-22T00:47:08.643Z,11.80
2023-02-22T00:49:36.315Z,13.10
2023-02-22T00:52:04.703Z,12.98
2023-02-22T00:54:31.516Z,14.52
2023-02-22T00:56:58.380Z,16.08
2023-02-22T00:59:27.254Z,15.88
2023-02-22T01:01:54.119Z,15.98
2023-02-22T01:04:21.176Z,16.40
2023-02-22T01:06:50.029Z,15.27
2023-02-22T01:09:16.947Z,13.38
2023-02-22T01:11:45.407Z,14.75
2023-02-22T01:14:12.318Z,13.95
2023-02-22T01:16:39.106Z,14.63
2023-02-22T01:19:06.310Z,12.90
2023-02-22T01:21:33.186Z,15.02
2023-02-22T01:24:00.127Z,14.55
2023-02-22T01:26:27.041Z,14.63
2023-02-22T01:28:55.319Z,14.25
2023-02-22T01:31:24.025Z,14.80
2023-02-22T01:33:51.499Z,13.93
2023-02-22T01:38:46.479Z,14.80
2023-02-22T01:41:13.663Z,18.23
2023-02-22T01:43:40.523Z,15.48
2023-02-22T01:46:20.877Z,12.27
2023-02-22T01:48:54.081Z,14.25
2023-02-22T01:51:24.593Z,17.10
2023-02-22T01:54:09.393Z,15.20
2023-02-22T01:56:39.467Z,13.23
2023-02-22T01:59:10.484Z,15.77
2023-02-22T02:01:43.140Z,14.98
2023-02-22T02:04:20.563Z,13.23
2023-02-22T02:06:48.156Z,16.55
2023-02-22T02:09:43.482Z,14.30
2023-02-22T02:12:12.262Z,15.30
2023-02-22T02:14:42.260Z,13.48
2023-02-22T02:17:11.949Z,13.50
2023-02-22T02:19:47.634Z,13.32
2023-02-22T02:22:28.869Z,14.32
2023-02-22T02:24:58.674Z,12.77
2023-02-22T02:28:01.484Z,12.65
2023-02-22T02:30:48.653Z,12.63
2023-02-22T02:33:33.656Z,11.13
2023-02-22T02:36:16.358Z,14.48
2023-02-22T02:39:00.702Z,13.63
2023-02-22T02:41:55.829Z,13.77
2023-02-22T02:44:46.129Z,13.25
2023-02-22T02:47:19.408Z,11.85
2023-02-22T02:49:54.898Z,12.93
2023-02-22T02:52:25.813Z,12.45
2023-02-22T02:54:54.784Z,11.95
2023-02-22T02:57:21.966Z,11.55
2023-02-22T03:02:29.004Z,12.67
2023-02-22T03:05:10.789Z,13.38
2023-02-22T03:08:01.119Z,11.77
2023-02-22T03:10:46.876Z,12.43
2023-02-22T03:13:38.912Z,13.20
2023-02-22T03:16:20.761Z,11.23
2023-02-22T03:19:11.648Z,12.13
2023-02-22T03:21:50.397Z,12.00
2023-02-22T03:24:32.834Z,12.55
2023-02-22T03:27:21.425Z,13.20
2023-02-22T03:29:53.684Z,12.52
2023-02-22T03:32:27.280Z,13.40
2023-02-22T03:34:59.430Z,14.77
2023-02-22T03:37:34.202Z,13.10
2023-02-22T03:40:14.136Z,14.82
2023-02-22T03:42:50.941Z,13.60
2023-02-22T03:45:21.556Z,12.10
2023-02-22T03:47:51.705Z,13.63
2023-02-22T03:50:22.962Z,12.77
2023-02-22T03:52:49.801Z,13.43
2023-02-22T03:55:23.754Z,14.90
2023-02-22T03:57:58.281Z,14.25
2023-02-22T04:00:31.041Z,13.55
2023-02-22T04:02:58.236Z,12.75
2023-02-22T04:05:26.152Z,13.32
2023-02-22T04:07:54.653Z,12.88
2023-02-22T04:10:22.475Z,12.30
2023-02-22T04:12:50.695Z,13.50
2023-02-22T04:15:21.948Z,11.57
2023-02-22T04:17:52.208Z,12.48
2023-02-22T04:20:19.999Z,12.25
2023-02-22T04:23:07.328Z,13.68
2023-02-22T04:25:37.966Z,12.63
2023-02-22T04:28:11.664Z,12.27
2023-02-22T04:30:48.090Z,10.88
2023-02-22T04:33:17.508Z,11.85
2023-02-22T04:35:44.362Z,12.63
2023-02-22T04:40:40.303Z,12.73
2023-02-22T04:43:07.871Z,15.82
2023-02-22T04:45:34.827Z,16.48
2023-02-22T04:48:03.298Z,16.48
2023-02-22T04:50:30.349Z,17.08
2023-02-22T04:52:57.426Z,18.73
2023-02-22T04:57:50.906Z,14.75
2023-02-22T05:00:21.828Z,14.55
2023-02-22T05:02:50.318Z,15.45
2023-02-22T05:05:21.532Z,15.13
2023-02-22T05:07:49.329Z,14.10
2023-02-22T05:10:16.884Z,13.23
2023-02-22T05:12:43.744Z,15.25
2023-02-22T05:15:11.661Z,16.20
2023-02-22T05:17:38.524Z,16.20
2023-02-22T05:20:08.539Z,17.95
2023-02-22T05:22:36.258Z,19.63
2023-02-22T05:25:03.395Z,17.17
2023-02-22T05:29:57.062Z,16.25
2023-02-22T05:32:24.397Z,16.67
2023-02-22T05:34:51.245Z,15.45
2023-02-22T05:37:18.146Z,19.45
2023-02-22T05:39:46.463Z,18.60
2023-02-22T05:42:13.274Z,16.77
2023-02-22T05:44:40.070Z,14.93
2023-02-22T05:47:06.872Z,16.33
2023-02-22T05:49:33.634Z,17.08
2023-02-22T05:52:00.469Z,15.52
2023-02-22T05:54:27.284Z,17.35
2023-02-22T05:56:54.157Z,18.60
2023-02-22T05:59:20.905Z,17.75
2023-02-22T06:01:47.624Z,17.75
2023-02-22T06:04:14.464Z,15.77
2023-02-22T06:06:41.392Z,15.57
2023-02-22T06:09:08.119Z,16.35
2023-02-22T06:11:34.894Z,17.50
2023-02-22T06:14:01.586Z,16.98
2023-02-22T06:16:28.383Z,17.60
2023-02-22T06:18:55.269Z,16.75
2023-02-22T06:21:22.213Z,17.27
2023-02-22T06:23:49.175Z,15.45
2023-02-22T06:26:17.921Z,15.65
2023-02-22T06:28:46.083Z,13.43
2023-02-22T06:31:12.920Z,16.73
2023-02-22T06:33:39.626Z,13.40
2023-02-22T06:36:06.979Z,14.90
2023-02-22T06:38:33.851Z,14.85
2023-02-22T06:41:00.633Z,13.77
2023-02-22T06:43:27.484Z,14.50
2023-02-22T06:45:54.537Z,14.27
2023-02-22T06:48:21.653Z,13.77
2023-02-22T06:50:48.389Z,16.33
2023-02-22T06:53:15.273Z,14.82
2023-02-22T06:55:42.187Z,16.13
2023-02-22T06:58:09.057Z,15.20
2023-02-22T07:00:36.069Z,16.00
2023-02-22T07:05:30.960Z,15.98
2023-02-22T07:08:04.132Z,16.40
2023-02-22T07:10:32.107Z,18.50
2023-02-22T07:12:59.082Z,17.10
2023-02-22T07:15:28.016Z,17.80
2023-02-22T07:17:55.037Z,18.05
2023-02-22T07:20:22.849Z,16.42
2023-02-22T07:22:50.550Z,17.08
2023-02-22T07:25:17.618Z,16.15
2023-02-22T07:30:34.524Z,12.35
2023-02-22T07:33:04.289Z,13.98
2023-02-22T07:35:33.574Z,13.15
2023-02-22T07:38:00.333Z,12.05
2023-02-22T07:40:28.078Z,11.68
2023-02-22T07:43:07.195Z,11.43
2023-02-22T07:45:35.791Z,11.00
2023-02-22T07:48:28.944Z,11.55
2023-02-22T07:50:56.116Z,20.42
2023-02-22T07:58:24.384Z,16.48
2023-02-22T08:00:51.422Z,12.27
2023-02-22T08:05:50.925Z,13.73
2023-02-22T08:08:19.992Z,12.85
2023-02-22T08:10:47.544Z,13.55
2023-02-22T08:13:14.879Z,14.10
2023-02-22T08:15:44.272Z,12.70
2023-02-22T08:18:15.609Z,13.95
2023-02-22T08:20:44.446Z,11.20
2023-02-22T08:23:12.835Z,14.55
2023-02-22T08:25:40.093Z,16.42
2023-02-22T08:28:09.867Z,15.15
2023-02-22T08:30:40.269Z,16.63
2023-02-22T08:33:07.836Z,16.50
2023-02-22T08:35:35.047Z,16.40
2023-02-22T08:38:06.457Z,15.38
2023-02-22T08:40:37.877Z,13.57
2023-02-22T08:43:04.891Z,12.30
2023-02-22T08:47:59.472Z,10.25
2023-02-22T08:50:33.579Z,14.57
2023-02-22T08:53:04.608Z,14.70
2023-02-22T08:55:34.402Z,14.32
2023-02-22T08:58:03.130Z,15.40
2023-02-22T09:00:33.269Z,11.77
2023-02-22T09:03:04.333Z,11.80
2023-02-22T09:05:32.160Z,11.48
2023-02-22T09:07:59.701Z,12.30
2023-02-22T09:10:32.241Z,12.40
2023-02-22T09:13:01.539Z,11.57
2023-02-22T09:15:29.761Z,12.25
2023-02-22T09:17:56.848Z,11.40
2023-02-22T09:20:24.924Z,11.63
2023-02-22T09:22:53.337Z,13.40
2023-02-22T09:25:21.540Z,14.07
2023-02-22T09:27:51.139Z,12.45
2023-02-22T09:30:24.724Z,12.57
2023-02-22T09:32:57.723Z,10.77
2023-02-22T09:35:27.306Z,11.13
2023-02-22T09:37:59.158Z,10.88
2023-02-22T09:40:31.864Z,10.35
2023-02-22T09:43:04.560Z,11.20
2023-02-22T09:46:06.705Z,10.70
2023-02-22T09:48:36.490Z,10.20
2023-02-22T09:51:15.127Z,12.80
2023-02-22T09:53:46.021Z,10.18
2023-02-22T09:56:15.437Z,11.27
2023-02-22T09:58:52.685Z,9.75
2023-02-22T10:01:19.694Z,10.93
2023-02-22T10:06:22.478Z,10.35
2023-02-22T10:08:51.725Z,10.30
2023-02-22T10:11:40.168Z,12.20
2023-02-22T10:14:14.456Z,11.65
2023-02-22T10:17:06.891Z,14.20
2023-02-22T10:19:49.075Z,12.63
2023-02-22T10:22:37.532Z,13.73
2023-02-22T10:25:12.738Z,12.80
2023-02-22T10:27:45.126Z,15.52
2023-02-22T10:30:25.236Z,13.70
2023-02-22T10:33:20.943Z,12.98
2023-02-22T10:35:48.205Z,11.73
2023-02-22T10:38:20.486Z,12.50
2023-02-22T10:40:59.279Z,11.55
2023-02-22T10:43:26.420Z,12.52
2023-02-22T10:45:56.060Z,12.60
2023-02-22T10:48:26.145Z,12.50
2023-02-22T10:50:57.282Z,13.02
2023-02-22T10:53:26.952Z,10.93
2023-02-22T10:56:18.437Z,11.32
2023-02-22T10:59:04.355Z,10.80
2023-02-22T11:01:31.275Z,9.90
2023-02-22T11:04:16.198Z,11.07
2023-02-22T11:06:46.785Z,11.48
2023-02-22T11:09:22.431Z,11.95
2023-02-22T11:11:51.207Z,11.20
2023-02-22T11:14:30.113Z,10.98
2023-02-22T11:16:59.162Z,13.63
2023-02-22T11:19:32.757Z,12.52
2023-02-22T11:22:31.671Z,10.85
2023-02-22T11:25:04.216Z,11.60
2023-02-22T11:27:43.686Z,11.68
2023-02-22T11:30:25.223Z,10.77
2023-02-22T11:33:06.224Z,11.30
2023-02-22T11:35:40.057Z,10.85
2023-02-22T11:38:31.125Z,10.07
2023-02-22T11:41:11.567Z,10.63
2023-02-22T11:43:38.379Z,11.63
2023-02-22T11:46:08.427Z,11.70
2023-02-22T11:48:39.210Z,11.90
2023-02-22T11:51:33.831Z,13.13
2023-02-22T11:54:34.924Z,11.13
2023-02-22T11:57:36.366Z,10.60
2023-02-22T12:00:16.137Z,10.85
2023-02-22T12:03:28.650Z,12.88
2023-02-22T12:06:20.095Z,11.77
2023-02-22T12:08:55.014Z,12.02
2023-02-22T12:11:24.944Z,12.07
2023-02-22T12:13:54.946Z,12.63
2023-02-22T12:16:34.832Z,13.88
2023-02-22T12:19:10.737Z,12.98
2023-02-22T12:21:43.671Z,13.88
2023-02-22T12:24:19.865Z,11.13
2023-02-22T12:26:51.055Z,14.27
2023-02-22T12:29:39.298Z,13.85
2023-02-22T12:32:38.160Z,12.57
2023-02-22T12:35:15.380Z,11.95
2023-02-22T12:38:07.133Z,11.27
2023-02-22T12:40:47.136Z,11.15
2023-02-22T12:43:24.075Z,11.93
2023-02-22T12:46:02.374Z,9.85
2023-02-22T12:48:49.512Z,10.75
2023-02-22T12:51:42.012Z,12.07
2023-02-22T12:54:41.985Z,11.13
2023-02-22T12:57:11.780Z,11.85
2023-02-22T13:00:11.297Z,9.13
2023-02-22T13:03:00.794Z,11.35
2023-02-22T13:05:33.327Z,10.05
2023-02-22T13:08:02.955Z,10.43
2023-02-22T13:10:39.935Z,10.50
2023-02-22T13:13:23.038Z,10.82
2023-02-22T13:16:05.306Z,11.80
2023-02-22T13:18:42.961Z,10.10
2023-02-22T13:21:35.032Z,10.98
2023-02-22T13:24:30.254Z,11.05
2023-02-22T13:27:08.141Z,9.75
2023-02-22T13:29:52.334Z,10.43
2023-02-22T13:32:31.838Z,11.38
2023-02-22T13:35:25.218Z,11.00
2023-02-22T13:38:07.493Z,10.35
2023-02-22T13:41:01.693Z,9.75
2023-02-22T13:43:28.429Z,13.18
2023-02-22T13:46:29.090Z,13.73
2023-02-22T13:49:17.510Z,13.07
2023-02-22T13:51:52.442Z,12.70
2023-02-22T13:54:41.154Z,14.90
2023-02-22T13:57:23.607Z,16.02
2023-02-22T14:00:18.551Z,16.02
2023-02-22T14:03:14.872Z,14.43
2023-02-22T14:05:42.106Z,14.70
2023-02-22T14:08:31.763Z,15.02
2023-02-22T14:11:00.660Z,13.50
2023-02-22T14:13:33.265Z,12.27
2023-02-22T14:16:00.191Z,14.38
2023-02-22T14:18:36.094Z,15.52
2023-02-22T14:21:16.311Z,16.52
2023-02-22T14:23:47.563Z,14.20
2023-02-22T14:26:35.457Z,15.27
2023-02-22T14:29:15.829Z,14.68
2023-02-22T14:31:49.990Z,15.07
2023-02-22T14:34:36.648Z,13.82
2023-02-22T14:37:08.256Z,14.93
2023-02-22T14:39:39.908Z,13.75
2023-02-22T14:42:25.290Z,15.45
2023-02-22T14:45:10.220Z,14.57
2023-02-22T14:47:49.496Z,14.25
2023-02-22T14:50:24.308Z,14.77
2023-02-22T14:53:06.878Z,16.50
2023-02-22T14:55:41.108Z,15.48
2023-02-22T14:58:19.917Z,15.73
2023-02-22T15:00:49.877Z,15.45
2023-02-22T15:03:33.379Z,14.52
2023-02-22T15:06:20.285Z,14.13
2023-02-22T15:08:50.793Z,15.00
2023-02-22T15:11:27.818Z,16.58
2023-02-22T15:13:55.043Z,14.52
2023-02-22T15:16:23.783Z,17.00
2023-02-22T15:18:54.306Z,15.55
2023-02-22T15:21:25.451Z,16.38
2023-02-22T15:24:04.694Z,17.38
2023-02-22T15:26:37.247Z,16.75
2023-02-22T15:29:32.040Z,17.35
2023-02-22T15:31:58.848Z,16.85
2023-02-22T15:37:06.569Z,16.70
2023-02-22T15:39:35.309Z,17.58
2023-02-22T15:42:21.412Z,17.52
2023-02-22T15:44:54.645Z,16.42
2023-02-22T15:47:29.538Z,16.13
2023-02-22T15:50:15.339Z,16.63
2023-02-22T15:53:01.828Z,19.95
2023-02-22T15:55:40.497Z,18.00
2023-02-22T15:58:19.316Z,20.00
2023-02-22T16:00:57.640Z,17.95
2023-02-22T16:03:28.805Z,18.63
2023-02-22T16:05:57.036Z,17.50
2023-02-22T16:08:26.685Z,21.08
2023-02-22T16:11:01.284Z,17.75
2023-02-22T16:13:33.125Z,21.75
2023-02-22T16:16:02.034Z,18.88
2023-02-22T16:18:36.233Z,18.83
2023-02-22T16:21:14.764Z,17.40
2023-02-22T16:23:53.107Z,19.05
2023-02-22T16:26:30.455Z,18.08
2023-02-22T16:29:01.566Z,18.00
2023-02-22T16:31:34.402Z,20.92
2023-02-22T16:34:02.480Z,20.73
2023-02-22T16:36:47.438Z,19.83
2023-02-22T16:39:27.361Z,19.40
2023-02-22T16:41:56.770Z,18.75
2023-02-22T16:44:28.036Z,18.33
2023-02-22T16:46:59.646Z,20.50
2023-02-22T16:49:27.069Z,19.67
2023-02-22T16:52:01.169Z,19.85
2023-02-22T16:54:39.936Z,20.13
2023-02-22T16:57:07.029Z,21.40
2023-02-22T16:59:42.042Z,20.23
2023-02-22T17:02:15.401Z,21.02
2023-02-22T17:04:49.154Z,21.25
2023-02-22T17:07:17.884Z,21.13
2023-02-22T17:09:44.605Z,24.00
2023-02-22T17:12:11.400Z,26.95
2023-02-22T17:14:40.841Z,22.50
2023-02-22T17:17:09.081Z,21.48
2023-02-22T17:19:37.596Z,20.65
2023-02-22T17:22:06.074Z,22.55
2023-02-22T17:24:33.949Z,22.17
2023-02-22T17:27:01.780Z,22.65
2023-02-22T17:29:29.689Z,19.50
2023-02-22T17:31:56.912Z,19.40
2023-02-22T17:34:24.742Z,21.35
2023-02-22T17:36:51.599Z,19.17
2023-02-22T17:39:18.776Z,23.48
2023-02-22T17:41:45.566Z,24.10
2023-02-22T17:44:12.799Z,23.20
2023-02-22T17:46:42.614Z,23.42
2023-02-22T17:49:10.286Z,21.20
2023-02-22T17:51:40.644Z,23.98
2023-02-22T17:54:09.409Z,22.35
2023-02-22T17:56:37.022Z,21.77
2023-02-22T18:01:32.206Z,22.10
2023-02-22T18:04:02.103Z,23.50
2023-02-22T18:06:31.136Z,22.00
2023-02-22T18:08:59.390Z,24.17
2023-02-22T18:11:28.313Z,23.88
2023-02-22T18:13:56.278Z,23.55
2023-02-22T18:16:25.620Z,22.67
2023-02-22T18:18:53.842Z,23.63
2023-02-22T18:21:20.761Z,26.05
2023-02-22T18:23:47.615Z,21.48
2023-02-22T18:26:17.075Z,20.95
2023-02-22T18:28:48.770Z,21.10
2023-02-22T18:31:17.815Z,19.73
2023-02-22T18:33:50.625Z,20.27
2023-02-22T18:36:23.380Z,19.40
2023-02-22T18:38:53.032Z,19.65
2023-02-22T18:41:25.028Z,18.98
2023-02-22T18:43:54.210Z,19.50
2023-02-22T18:46:22.866Z,22.15
2023-02-22T18:48:53.614Z,21.38
2023-02-22T18:51:21.137Z,21.70
2023-02-22T18:53:49.796Z,26.50
2023-02-22T18:56:22.216Z,24.55
2023-02-22T18:58:53.477Z,27.65
2023-02-22T19:01:21.964Z,22.55
2023-02-22T19:03:49.191Z,21.98
2023-02-22T19:06:17.095Z,25.02
2023-02-22T19:08:45.865Z,24.40
2023-02-22T19:11:19.193Z,32.08
2023-02-22T19:13:47.300Z,36.40
2023-02-22T19:16:15.876Z,32.65
2023-02-22T19:18:44.162Z,26.73
2023-02-22T19:21:14.043Z,28.08
2023-02-22T19:23:48.061Z,22.80
2023-02-22T19:26:25.908Z,23.27
2023-02-22T19:28:55.202Z,19.98
2023-02-22T19:31:30.313Z,23.30
2023-02-22T19:34:02.919Z,25.50
2023-02-22T19:36:30.151Z,24.35
2023-02-22T19:39:01.646Z,22.85
2023-02-22T19:41:29.052Z,21.42
2023-02-22T19:43:56.139Z,22.02
2023-02-22T19:46:25.404Z,20.98
2023-02-22T19:48:53.534Z,20.00
2023-02-22T19:51:26.202Z,21.40
2023-02-22T19:53:55.866Z,22.92
2023-02-22T19:56:30.590Z,19.88
2023-02-22T19:59:02.931Z,21.27
2023-02-22T20:01:33.183Z,22.02
2023-02-22T20:04:05.775Z,21.42
2023-02-22T20:06:40.306Z,21.80
2023-02-22T20:09:10.618Z,21.80
2023-02-22T20:11:37.692Z,19.67
2023-02-22T20:14:06.441Z,19.52
2023-02-22T20:16:34.759Z,21.33
2023-02-22T20:19:02.061Z,18.48
2023-02-22T20:21:34.009Z,19.15
2023-02-22T20:24:03.387Z,23.30
2023-02-22T20:26:32.768Z,21.83
2023-02-22T20:29:00.450Z,19.25
2023-02-22T20:31:29.644Z,19.80
2023-02-22T20:33:59.094Z,21.92
2023-02-22T20:36:28.767Z,24.83
2023-02-22T20:38:57.854Z,23.67
2023-02-22T20:41:32.168Z,25.67
2023-02-22T20:44:00.399Z,22.52
2023-02-22T20:46:31.269Z,20.02
2023-02-22T20:48:59.920Z,23.33
2023-02-22T20:51:28.007Z,21.42
2023-02-22T20:53:56.624Z,20.10
2023-02-22T20:56:24.429Z,19.42
2023-02-22T20:58:51.470Z,22.17
2023-02-22T21:03:46.988Z,20.05
2023-02-22T21:06:16.126Z,21.35
2023-02-22T21:08:44.365Z,21.77
2023-02-22T21:11:13.024Z,22.55
2023-02-22T21:13:40.664Z,21.02
2023-02-22T21:16:10.241Z,21.70
2023-02-22T21:18:37.801Z,23.08
2023-02-22T21:21:12.795Z,23.77
2023-02-22T21:23:40.992Z,22.42
2023-02-22T21:26:14.521Z,23.05
2023-02-22T21:28:50.920Z,18.25
2023-02-22T21:31:20.369Z,19.25
2023-02-22T21:33:50.638Z,18.92
2023-02-22T21:36:18.285Z,22.77
2023-02-22T21:38:53.099Z,20.15
2023-02-22T21:41:24.193Z,20.63
2023-02-22T21:43:52.264Z,19.70
2023-02-22T21:46:19.508Z,23.20
2023-02-22T21:48:48.929Z,21.08
2023-02-22T21:51:19.880Z,21.80
2023-02-22T21:53:49.498Z,25.55
2023-02-22T21:56:19.077Z,22.98
2023-02-22T21:58:47.236Z,23.60
2023-02-22T22:01:17.353Z,22.02
2023-02-22T22:03:46.114Z,21.80
2023-02-22T22:06:16.070Z,22.73
2023-02-22T22:08:45.973Z,21.70
2023-02-22T22:11:15.061Z,22.50
2023-02-22T22:13:42.401Z,21.35
2023-02-22T22:16:14.871Z,19.67
2023-02-22T22:18:43.172Z,22.35
2023-02-22T22:21:22.735Z,23.58
2023-02-22T22:23:54.298Z,20.52
2023-02-22T22:26:24.493Z,22.25
2023-02-22T22:28:58.129Z,21.42
2023-02-22T22:31:26.427Z,21.27
2023-02-22T22:33:56.215Z,21.40
2023-02-22T22:36:26.000Z,19.80
2023-02-22T22:38:53.292Z,19.95
2023-02-22T22:41:21.889Z,20.75
2023-02-22T22:43:49.083Z,19.92
2023-02-22T22:46:17.435Z,20.63
2023-02-22T22:48:47.245Z,19.17
2023-02-22T22:51:21.829Z,19.60
2023-02-22T22:53:50.616Z,18.15
2023-02-22T22:56:29.125Z,19.55
2023-02-22T22:58:58.325Z,21.40
2023-02-22T23:01:34.253Z,24.08
2023-02-22T23:04:04.384Z,24.05
2023-02-22T23:06:33.728Z,24.10
2023-02-22T23:09:13.000Z,24.40
2023-02-22T23:11:45.505Z,24.90
2023-02-22T23:14:14.951Z,22.10
2023-02-22T23:16:42.826Z,23.40
2023-02-22T23:19:10.044Z,24.90
2023-02-22T23:21:37.418Z,22.60
2023-02-22T23:24:06.561Z,23.33
2023-02-22T23:26:34.280Z,21.40
2023-02-22T23:29:01.757Z,19.35
2023-02-22T23:31:29.225Z,19.42
2023-02-22T23:33:58.944Z,19.40
2023-02-22T23:36:26.946Z,18.85
2023-02-22T23:38:54.294Z,20.45
2023-02-22T23:41:25.015Z,19.35
2023-02-22T23:43:51.781Z,18.20
2023-02-22T23:46:19.190Z,19.45
2023-02-22T23:48:54.761Z,18.30
2023-02-22T23:51:26.288Z,19.58
2023-02-22T23:53:57.534Z,19.35
2023-02-22T23:56:26.982Z,17.58
2023-02-22T23:58:57.014Z,19.40
